sensor_id;sensor_type;location;lat;lon;timestamp;temperature;humidity
4501;DHT22;2263;54.654;9.410;2023-03-01T00:01:29;5.60;85.80
4501;DHT22;2263;54.654;9.410;2023-03-01T00:04:14;5.60;85.90
4501;DHT22;2263;54.654;9.410;2023-03-01T00:06:58;5.60;85.70
4501;DHT22;2263;54.654;9.410;2023-03-01T00:09:42;5.60;86.20
4501;DHT22;2263;54.654;9.410;2023-03-01T00:12:31;5.60;85.90
4501;DHT22;2263;54.654;9.410;2023-03-01T00:15:16;5.50;86.10
4501;DHT22;2263;54.654;9.410;2023-03-01T00:18:00;5.50;86.00
4501;DHT22;2263;54.654;9.410;2023-03-01T00:20:55;5.50;86.20
4501;DHT22;2263;54.654;9.410;2023-03-01T00:23:39;5.50;86.00
4501;DHT22;2263;54.654;9.410;2023-03-01T00:26:25;5.50;86.20
4501;DHT22;2263;54.654;9.410;2023-03-01T00:29:10;5.50;86.20
4501;DHT22;2263;54.654;9.410;2023-03-01T00:31:54;5.50;86.50
4501;DHT22;2263;54.654;9.410;2023-03-01T00:34:39;5.40;86.20
4501;DHT22;2263;54.654;9.410;2023-03-01T00:37:24;5.40;86.50
4501;DHT22;2263;54.654;9.410;2023-03-01T00:40:08;5.40;86.50
4501;DHT22;2263;54.654;9.410;2023-03-01T00:42:54;5.40;86.60
4501;DHT22;2263;54.654;9.410;2023-03-01T00:45:39;5.40;86.60
4501;DHT22;2263;54.654;9.410;2023-03-01T00:48:23;5.40;86.60
4501;DHT22;2263;54.654;9.410;2023-03-01T00:51:16;5.30;86.50
4501;DHT22;2263;54.654;9.410;2023-03-01T00:54:02;5.30;86.60
4501;DHT22;2263;54.654;9.410;2023-03-01T00:56:47;5.30;86.70
4501;DHT22;2263;54.654;9.410;2023-03-01T00:59:31;5.30;86.80
4501;DHT22;2263;54.654;9.410;2023-03-01T01:02:16;5.20;86.50
4501;DHT22;2263;54.654;9.410;2023-03-01T01:05:00;5.30;86.80
4501;DHT22;2263;54.654;9.410;2023-03-01T01:07:45;5.20;86.60
4501;DHT22;2263;54.654;9.410;2023-03-01T01:10:29;5.20;86.70
4501;DHT22;2263;54.654;9.410;2023-03-01T01:13:14;5.20;86.70
4501;DHT22;2263;54.654;9.410;2023-03-01T01:16:02;5.20;86.90
4501;DHT22;2263;54.654;9.410;2023-03-01T01:18:46;5.20;86.80
4501;DHT22;2263;54.654;9.410;2023-03-01T01:21:31;5.20;87.00
4501;DHT22;2263;54.654;9.410;2023-03-01T01:24:16;5.20;86.70
4501;DHT22;2263;54.654;9.410;2023-03-01T01:27:00;5.20;86.80
4501;DHT22;2263;54.654;9.410;2023-03-01T01:29:45;5.10;86.90
4501;DHT22;2263;54.654;9.410;2023-03-01T01:32:29;5.10;86.90
4501;DHT22;2263;54.654;9.410;2023-03-01T01:35:14;5.10;86.90
4501;DHT22;2263;54.654;9.410;2023-03-01T01:37:58;5.10;87.00
4501;DHT22;2263;54.654;9.410;2023-03-01T01:40:45;5.10;87.10
4501;DHT22;2263;54.654;9.410;2023-03-01T01:43:33;5.00;86.90
4501;DHT22;2263;54.654;9.410;2023-03-01T01:46:30;5.00;87.00
4501;DHT22;2263;54.654;9.410;2023-03-01T01:57:55;5.00;87.00
4501;DHT22;2263;54.654;9.410;2023-03-01T02:00:40;5.00;87.00
4501;DHT22;2263;54.654;9.410;2023-03-01T02:03:27;4.90;87.10
4501;DHT22;2263;54.654;9.410;2023-03-01T02:06:29;4.90;87.10
4501;DHT22;2263;54.654;9.410;2023-03-01T02:09:15;4.90;87.00
4501;DHT22;2263;54.654;9.410;2023-03-01T02:12:02;4.90;87.00
4501;DHT22;2263;54.654;9.410;2023-03-01T02:14:48;4.90;87.40
4501;DHT22;2263;54.654;9.410;2023-03-01T02:17:33;4.90;87.50
4501;DHT22;2263;54.654;9.410;2023-03-01T02:23:18;4.90;87.70
4501;DHT22;2263;54.654;9.410;2023-03-01T02:28:57;4.90;87.60
4501;DHT22;2263;54.654;9.410;2023-03-01T02:31:41;4.80;87.30
4501;DHT22;2263;54.654;9.410;2023-03-01T02:34:26;4.80;87.30
4501;DHT22;2263;54.654;9.410;2023-03-01T02:37:13;4.80;87.50
4501;DHT22;2263;54.654;9.410;2023-03-01T02:40:03;4.80;87.40
4501;DHT22;2263;54.654;9.410;2023-03-01T02:42:56;4.80;87.60
4501;DHT22;2263;54.654;9.410;2023-03-01T02:45:51;4.80;87.70
4501;DHT22;2263;54.654;9.410;2023-03-01T02:48:52;4.80;87.50
4501;DHT22;2263;54.654;9.410;2023-03-01T02:55:04;4.70;87.60
4501;DHT22;2263;54.654;9.410;2023-03-01T02:57:50;4.70;87.80
4501;DHT22;2263;54.654;9.410;2023-03-01T03:00:40;4.70;87.80
4501;DHT22;2263;54.654;9.410;2023-03-01T03:03:29;4.70;87.70
4501;DHT22;2263;54.654;9.410;2023-03-01T03:06:14;4.70;87.80
4501;DHT22;2263;54.654;9.410;2023-03-01T03:08:58;4.60;87.80
4501;DHT22;2263;54.654;9.410;2023-03-01T03:11:43;4.60;87.50
4501;DHT22;2263;54.654;9.410;2023-03-01T03:14:28;4.60;87.70
4501;DHT22;2263;54.654;9.410;2023-03-01T03:17:12;4.60;87.80
4501;DHT22;2263;54.654;9.410;2023-03-01T03:19:57;4.60;87.70
4501;DHT22;2263;54.654;9.410;2023-03-01T03:22:41;4.60;87.80
4501;DHT22;2263;54.654;9.410;2023-03-01T03:25:27;4.50;87.80
4501;DHT22;2263;54.654;9.410;2023-03-01T03:28:11;4.50;87.70
4501;DHT22;2263;54.654;9.410;2023-03-01T03:30:56;4.50;87.90
4501;DHT22;2263;54.654;9.410;2023-03-01T03:33:40;4.50;87.90
4501;DHT22;2263;54.654;9.410;2023-03-01T03:36:25;4.50;87.70
4501;DHT22;2263;54.654;9.410;2023-03-01T03:39:09;4.50;87.70
4501;DHT22;2263;54.654;9.410;2023-03-01T03:41:54;4.50;87.80
4501;DHT22;2263;54.654;9.410;2023-03-01T03:44:39;4.50;87.70
4501;DHT22;2263;54.654;9.410;2023-03-01T03:47:24;4.50;87.70
4501;DHT22;2263;54.654;9.410;2023-03-01T03:50:10;4.40;87.90
4501;DHT22;2263;54.654;9.410;2023-03-01T03:52:55;4.40;87.70
4501;DHT22;2263;54.654;9.410;2023-03-01T03:55:40;4.40;87.80
4501;DHT22;2263;54.654;9.410;2023-03-01T03:58:25;4.40;87.50
4501;DHT22;2263;54.654;9.410;2023-03-01T04:01:09;4.40;87.80
4501;DHT22;2263;54.654;9.410;2023-03-01T04:03:54;4.30;87.40
4501;DHT22;2263;54.654;9.410;2023-03-01T04:06:38;4.40;87.80
4501;DHT22;2263;54.654;9.410;2023-03-01T04:09:23;4.30;87.50
4501;DHT22;2263;54.654;9.410;2023-03-01T04:12:07;4.30;87.60
4501;DHT22;2263;54.654;9.410;2023-03-01T04:14:52;4.30;87.50
4501;DHT22;2263;54.654;9.410;2023-03-01T04:17:36;4.30;87.60
4501;DHT22;2263;54.654;9.410;2023-03-01T04:20:27;4.20;87.40
4501;DHT22;2263;54.654;9.410;2023-03-01T04:23:15;4.20;87.50
4501;DHT22;2263;54.654;9.410;2023-03-01T04:26:00;4.20;87.20
4501;DHT22;2263;54.654;9.410;2023-03-01T04:28:44;4.20;87.40
4501;DHT22;2263;54.654;9.410;2023-03-01T04:31:29;4.20;87.40
4501;DHT22;2263;54.654;9.410;2023-03-01T04:34:14;4.20;87.40
4501;DHT22;2263;54.654;9.410;2023-03-01T04:36:58;4.20;87.30
4501;DHT22;2263;54.654;9.410;2023-03-01T04:39:43;4.10;87.20
4501;DHT22;2263;54.654;9.410;2023-03-01T04:42:31;4.20;87.50
4501;DHT22;2263;54.654;9.410;2023-03-01T04:45:15;4.10;87.40
4501;DHT22;2263;54.654;9.410;2023-03-01T04:48:00;4.10;87.40
4501;DHT22;2263;54.654;9.410;2023-03-01T04:50:45;4.10;87.50
4501;DHT22;2263;54.654;9.410;2023-03-01T04:53:30;4.10;87.50
4501;DHT22;2263;54.654;9.410;2023-03-01T04:56:14;4.10;87.30
4501;DHT22;2263;54.654;9.410;2023-03-01T04:58:59;4.00;87.20
4501;DHT22;2263;54.654;9.410;2023-03-01T05:01:44;4.10;87.40
4501;DHT22;2263;54.654;9.410;2023-03-01T05:04:30;4.00;87.30
4501;DHT22;2263;54.654;9.410;2023-03-01T05:07:15;4.00;87.30
4501;DHT22;2263;54.654;9.410;2023-03-01T05:10:03;4.00;87.30
4501;DHT22;2263;54.654;9.410;2023-03-01T05:12:48;4.00;87.40
4501;DHT22;2263;54.654;9.410;2023-03-01T05:15:33;4.00;87.30
4501;DHT22;2263;54.654;9.410;2023-03-01T05:18:17;3.90;87.30
4501;DHT22;2263;54.654;9.410;2023-03-01T05:21:05;3.90;87.30
4501;DHT22;2263;54.654;9.410;2023-03-01T05:23:50;3.90;87.40
4501;DHT22;2263;54.654;9.410;2023-03-01T05:26:35;3.90;87.30
4501;DHT22;2263;54.654;9.410;2023-03-01T05:29:23;3.90;87.20
4501;DHT22;2263;54.654;9.410;2023-03-01T05:32:10;3.90;87.30
4501;DHT22;2263;54.654;9.410;2023-03-01T05:34:59;3.80;87.20
4501;DHT22;2263;54.654;9.410;2023-03-01T05:37:46;3.80;87.70
4501;DHT22;2263;54.654;9.410;2023-03-01T05:40:33;3.80;87.20
4501;DHT22;2263;54.654;9.410;2023-03-01T05:43:18;3.80;87.30
4501;DHT22;2263;54.654;9.410;2023-03-01T05:46:02;3.80;87.30
4501;DHT22;2263;54.654;9.410;2023-03-01T05:48:47;3.80;87.20
4501;DHT22;2263;54.654;9.410;2023-03-01T05:51:32;3.80;87.40
4501;DHT22;2263;54.654;9.410;2023-03-01T05:54:19;3.80;87.20
4501;DHT22;2263;54.654;9.410;2023-03-01T05:57:03;3.70;87.30
4501;DHT22;2263;54.654;9.410;2023-03-01T05:59:47;3.80;87.30
4501;DHT22;2263;54.654;9.410;2023-03-01T06:02:32;3.70;87.30
4501;DHT22;2263;54.654;9.410;2023-03-01T06:05:16;3.70;87.20
4501;DHT22;2263;54.654;9.410;2023-03-01T06:08:01;3.70;87.20
4501;DHT22;2263;54.654;9.410;2023-03-01T06:10:46;3.70;87.20
4501;DHT22;2263;54.654;9.410;2023-03-01T06:13:31;3.70;87.20
4501;DHT22;2263;54.654;9.410;2023-03-01T06:16:16;3.60;87.00
4501;DHT22;2263;54.654;9.410;2023-03-01T06:19:01;3.60;87.10
4501;DHT22;2263;54.654;9.410;2023-03-01T06:21:45;3.60;87.70
4501;DHT22;2263;54.654;9.410;2023-03-01T06:24:30;3.60;87.10
4501;DHT22;2263;54.654;9.410;2023-03-01T06:27:14;3.60;87.20
4501;DHT22;2263;54.654;9.410;2023-03-01T06:29:59;3.60;87.10
4501;DHT22;2263;54.654;9.410;2023-03-01T06:32:43;3.60;87.10
4501;DHT22;2263;54.654;9.410;2023-03-01T06:35:28;3.60;87.20
4501;DHT22;2263;54.654;9.410;2023-03-01T06:38:15;3.60;87.20
4501;DHT22;2263;54.654;9.410;2023-03-01T06:41:01;3.50;87.30
4501;DHT22;2263;54.654;9.410;2023-03-01T06:43:45;3.50;87.30
4501;DHT22;2263;54.654;9.410;2023-03-01T06:46:31;3.50;87.30
4501;DHT22;2263;54.654;9.410;2023-03-01T06:49:15;3.50;87.40
4501;DHT22;2263;54.654;9.410;2023-03-01T06:52:02;3.50;87.50
4501;DHT22;2263;54.654;9.410;2023-03-01T06:54:46;3.50;87.40
4501;DHT22;2263;54.654;9.410;2023-03-01T06:57:30;3.50;87.30
4501;DHT22;2263;54.654;9.410;2023-03-01T07:00:15;3.50;87.60
4501;DHT22;2263;54.654;9.410;2023-03-01T07:03:01;3.50;87.60
4501;DHT22;2263;54.654;9.410;2023-03-01T07:05:49;3.50;87.80
4501;DHT22;2263;54.654;9.410;2023-03-01T07:08:34;3.10;86.90
4501;DHT22;2263;54.654;9.410;2023-03-01T07:11:18;3.20;88.00
4501;DHT22;2263;54.654;9.410;2023-03-01T07:14:03;3.30;88.10
4501;DHT22;2263;54.654;9.410;2023-03-01T07:16:47;3.30;88.00
4501;DHT22;2263;54.654;9.410;2023-03-01T07:19:32;3.30;88.10
4501;DHT22;2263;54.654;9.410;2023-03-01T07:22:16;3.40;88.00
4501;DHT22;2263;54.654;9.410;2023-03-01T07:25:01;3.40;88.20
4501;DHT22;2263;54.654;9.410;2023-03-01T07:27:50;3.40;88.20
4501;DHT22;2263;54.654;9.410;2023-03-01T07:30:35;3.40;88.20
4501;DHT22;2263;54.654;9.410;2023-03-01T07:33:19;3.30;88.20
4501;DHT22;2263;54.654;9.410;2023-03-01T07:44:14;3.30;88.30
4501;DHT22;2263;54.654;9.410;2023-03-01T07:46:59;3.40;88.50
4501;DHT22;2263;54.654;9.410;2023-03-01T07:49:44;2.90;87.80
4501;DHT22;2263;54.654;9.410;2023-03-01T07:52:29;3.00;88.80
4501;DHT22;2263;54.654;9.410;2023-03-01T07:55:16;3.10;88.80
4501;DHT22;2263;54.654;9.410;2023-03-01T07:58:00;3.10;88.80
4501;DHT22;2263;54.654;9.410;2023-03-01T08:00:45;3.20;88.80
4501;DHT22;2263;54.654;9.410;2023-03-01T08:03:29;3.20;88.80
4501;DHT22;2263;54.654;9.410;2023-03-01T08:06:15;3.20;88.80
4501;DHT22;2263;54.654;9.410;2023-03-01T08:09:00;3.20;88.80
4501;DHT22;2263;54.654;9.410;2023-03-01T08:11:44;3.20;88.90
4501;DHT22;2263;54.654;9.410;2023-03-01T08:14:29;3.20;88.90
4501;DHT22;2263;54.654;9.410;2023-03-01T08:17:14;3.20;88.90
4501;DHT22;2263;54.654;9.410;2023-03-01T08:19:59;3.20;89.00
4501;DHT22;2263;54.654;9.410;2023-03-01T08:22:46;3.20;89.00
4501;DHT22;2263;54.654;9.410;2023-03-01T08:25:31;3.20;89.10
4501;DHT22;2263;54.654;9.410;2023-03-01T08:28:15;3.20;89.20
4501;DHT22;2263;54.654;9.410;2023-03-01T08:31:00;3.20;89.30
4501;DHT22;2263;54.654;9.410;2023-03-01T08:33:45;3.20;89.20
4501;DHT22;2263;54.654;9.410;2023-03-01T08:36:44;3.20;89.90
4501;DHT22;2263;54.654;9.410;2023-03-01T08:39:29;3.20;89.30
4501;DHT22;2263;54.654;9.410;2023-03-01T08:42:14;3.30;89.50
4501;DHT22;2263;54.654;9.410;2023-03-01T08:44:58;3.20;89.40
4501;DHT22;2263;54.654;9.410;2023-03-01T08:47:42;3.20;89.50
4501;DHT22;2263;54.654;9.410;2023-03-01T08:50:27;3.20;89.60
4501;DHT22;2263;54.654;9.410;2023-03-01T08:53:11;3.30;89.80
4501;DHT22;2263;54.654;9.410;2023-03-01T08:56:00;3.30;89.80
4501;DHT22;2263;54.654;9.410;2023-03-01T08:58:46;3.30;90.30
4501;DHT22;2263;54.654;9.410;2023-03-01T09:01:30;3.30;90.00
4501;DHT22;2263;54.654;9.410;2023-03-01T09:04:15;3.30;90.00
4501;DHT22;2263;54.654;9.410;2023-03-01T09:07:00;3.30;90.00
4501;DHT22;2263;54.654;9.410;2023-03-01T09:09:45;3.30;90.10
4501;DHT22;2263;54.654;9.410;2023-03-01T09:12:30;3.30;90.10
4501;DHT22;2263;54.654;9.410;2023-03-01T09:15:14;3.30;90.10
4501;DHT22;2263;54.654;9.410;2023-03-01T09:17:59;3.30;90.20
4501;DHT22;2263;54.654;9.410;2023-03-01T09:20:43;3.30;90.20
4501;DHT22;2263;54.654;9.410;2023-03-01T09:23:28;3.30;90.70
4501;DHT22;2263;54.654;9.410;2023-03-01T09:26:20;3.40;90.40
4501;DHT22;2263;54.654;9.410;2023-03-01T09:29:05;3.40;90.40
4501;DHT22;2263;54.654;9.410;2023-03-01T09:31:50;3.40;90.40
4501;DHT22;2263;54.654;9.410;2023-03-01T09:34:34;3.40;90.50
4501;DHT22;2263;54.654;9.410;2023-03-01T09:37:39;3.40;90.60
4501;DHT22;2263;54.654;9.410;2023-03-01T09:40:28;3.40;90.50
4501;DHT22;2263;54.654;9.410;2023-03-01T09:43:21;3.40;90.60
4501;DHT22;2263;54.654;9.410;2023-03-01T09:46:12;3.40;90.60
4501;DHT22;2263;54.654;9.410;2023-03-01T09:49:19;3.40;90.70
4501;DHT22;2263;54.654;9.410;2023-03-01T09:54:53;3.40;90.70
4501;DHT22;2263;54.654;9.410;2023-03-01T09:57:43;3.40;90.70
4501;DHT22;2263;54.654;9.410;2023-03-01T10:00:39;3.50;90.90
4501;DHT22;2263;54.654;9.410;2023-03-01T10:03:42;3.50;91.00
4501;DHT22;2263;54.654;9.410;2023-03-01T10:06:27;3.40;90.90
4501;DHT22;2263;54.654;9.410;2023-03-01T10:09:16;3.40;90.90
4501;DHT22;2263;54.654;9.410;2023-03-01T10:12:08;3.50;91.00
4501;DHT22;2263;54.654;9.410;2023-03-01T10:15:13;3.50;91.00
4501;DHT22;2263;54.654;9.410;2023-03-01T10:18:02;3.50;91.00
4501;DHT22;2263;54.654;9.410;2023-03-01T10:21:01;3.50;91.00
4501;DHT22;2263;54.654;9.410;2023-03-01T10:23:50;3.50;91.00
4501;DHT22;2263;54.654;9.410;2023-03-01T10:29:39;3.50;91.00
4501;DHT22;2263;54.654;9.410;2023-03-01T10:32:26;3.50;91.20
4501;DHT22;2263;54.654;9.410;2023-03-01T10:35:22;3.50;91.30
4501;DHT22;2263;54.654;9.410;2023-03-01T10:38:11;3.50;91.20
4501;DHT22;2263;54.654;9.410;2023-03-01T10:40:59;3.50;91.10
4501;DHT22;2263;54.654;9.410;2023-03-01T10:43:57;3.50;91.30
4501;DHT22;2263;54.654;9.410;2023-03-01T10:46:41;3.60;91.20
4501;DHT22;2263;54.654;9.410;2023-03-01T10:49:26;3.60;91.20
4501;DHT22;2263;54.654;9.410;2023-03-01T10:52:19;3.50;91.10
4501;DHT22;2263;54.654;9.410;2023-03-01T10:58:18;3.50;91.40
4501;DHT22;2263;54.654;9.410;2023-03-01T11:01:06;3.60;91.40
4501;DHT22;2263;54.654;9.410;2023-03-01T11:06:59;3.60;91.40
4501;DHT22;2263;54.654;9.410;2023-03-01T11:09:43;3.60;91.40
4501;DHT22;2263;54.654;9.410;2023-03-01T11:12:27;3.60;91.40
4501;DHT22;2263;54.654;9.410;2023-03-01T11:15:27;3.60;91.50
4501;DHT22;2263;54.654;9.410;2023-03-01T11:18:22;3.60;91.50
4501;DHT22;2263;54.654;9.410;2023-03-01T11:21:07;3.60;91.50
4501;DHT22;2263;54.654;9.410;2023-03-01T11:23:53;3.60;91.50
4501;DHT22;2263;54.654;9.410;2023-03-01T11:26:40;3.60;91.50
4501;DHT22;2263;54.654;9.410;2023-03-01T11:29:38;3.60;91.60
4501;DHT22;2263;54.654;9.410;2023-03-01T11:32:29;3.70;91.50
4501;DHT22;2263;54.654;9.410;2023-03-01T11:35:24;3.70;91.60
4501;DHT22;2263;54.654;9.410;2023-03-01T11:38:21;3.70;91.60
4501;DHT22;2263;54.654;9.410;2023-03-01T11:41:30;3.70;91.60
4501;DHT22;2263;54.654;9.410;2023-03-01T11:44:24;3.70;91.70
4501;DHT22;2263;54.654;9.410;2023-03-01T11:47:26;3.70;91.60
4501;DHT22;2263;54.654;9.410;2023-03-01T11:50:46;3.70;91.70
4501;DHT22;2263;54.654;9.410;2023-03-01T11:56:32;3.70;91.70
4501;DHT22;2263;54.654;9.410;2023-03-01T12:08:56;3.70;91.70
4501;DHT22;2263;54.654;9.410;2023-03-01T12:18:05;3.80;91.80
4501;DHT22;2263;54.654;9.410;2023-03-01T12:21:17;3.80;91.80
4501;DHT22;2263;54.654;9.410;2023-03-01T12:27:11;3.80;91.90
4501;DHT22;2263;54.654;9.410;2023-03-01T12:45:47;3.90;91.90
4501;DHT22;2263;54.654;9.410;2023-03-01T12:51:29;3.90;92.00
4501;DHT22;2263;54.654;9.410;2023-03-01T12:54:27;3.90;92.00
4501;DHT22;2263;54.654;9.410;2023-03-01T13:00:16;3.90;92.00
4501;DHT22;2263;54.654;9.410;2023-03-01T13:06:25;4.00;92.10
4501;DHT22;2263;54.654;9.410;2023-03-01T13:13:00;4.00;92.10
4501;DHT22;2263;54.654;9.410;2023-03-01T13:15:46;4.00;92.10
4501;DHT22;2263;54.654;9.410;2023-03-01T13:18:35;4.00;92.00
4501;DHT22;2263;54.654;9.410;2023-03-01T13:21:30;4.00;92.10
4501;DHT22;2263;54.654;9.410;2023-03-01T13:24:37;4.00;92.00
4501;DHT22;2263;54.654;9.410;2023-03-01T13:27:23;4.00;92.00
4501;DHT22;2263;54.654;9.410;2023-03-01T13:30:38;4.00;92.10
4501;DHT22;2263;54.654;9.410;2023-03-01T13:39:31;4.10;92.10
4501;DHT22;2263;54.654;9.410;2023-03-01T13:42:43;4.10;92.20
4501;DHT22;2263;54.654;9.410;2023-03-01T13:45:38;4.10;92.10
4501;DHT22;2263;54.654;9.410;2023-03-01T13:48:26;4.10;92.10
4501;DHT22;2263;54.654;9.410;2023-03-01T13:51:12;4.10;92.10
4501;DHT22;2263;54.654;9.410;2023-03-01T13:53:57;4.10;92.20
4501;DHT22;2263;54.654;9.410;2023-03-01T13:56:43;4.10;92.20
4501;DHT22;2263;54.654;9.410;2023-03-01T13:59:28;4.10;92.20
4501;DHT22;2263;54.654;9.410;2023-03-01T14:02:15;4.10;92.20
4501;DHT22;2263;54.654;9.410;2023-03-01T14:05:00;4.10;92.20
4501;DHT22;2263;54.654;9.410;2023-03-01T14:07:51;4.10;92.20
4501;DHT22;2263;54.654;9.410;2023-03-01T14:17:20;4.10;92.20
4501;DHT22;2263;54.654;9.410;2023-03-01T14:23:11;4.20;92.40
4501;DHT22;2263;54.654;9.410;2023-03-01T14:25:57;4.20;92.30
4501;DHT22;2263;54.654;9.410;2023-03-01T14:28:42;4.20;92.30
4501;DHT22;2263;54.654;9.410;2023-03-01T14:31:37;4.20;92.30
4501;DHT22;2263;54.654;9.410;2023-03-01T14:34:23;4.20;92.30
4501;DHT22;2263;54.654;9.410;2023-03-01T14:40:04;4.20;92.40
4501;DHT22;2263;54.654;9.410;2023-03-01T14:42:49;4.20;92.40
4501;DHT22;2263;54.654;9.410;2023-03-01T14:45:33;4.20;92.40
4501;DHT22;2263;54.654;9.410;2023-03-01T14:48:19;4.20;92.50
4501;DHT22;2263;54.654;9.410;2023-03-01T14:51:05;4.20;92.50
4501;DHT22;2263;54.654;9.410;2023-03-01T14:53:50;4.20;92.60
4501;DHT22;2263;54.654;9.410;2023-03-01T14:56:46;4.20;92.60
4501;DHT22;2263;54.654;9.410;2023-03-01T14:59:36;4.20;92.50
4501;DHT22;2263;54.654;9.410;2023-03-01T15:02:24;4.20;92.50
4501;DHT22;2263;54.654;9.410;2023-03-01T15:05:09;4.20;92.50
4501;DHT22;2263;54.654;9.410;2023-03-01T15:07:54;4.20;92.50
4501;DHT22;2263;54.654;9.410;2023-03-01T15:10:39;4.20;92.50
4501;DHT22;2263;54.654;9.410;2023-03-01T15:13:33;4.20;92.70
4501;DHT22;2263;54.654;9.410;2023-03-01T15:16:27;4.20;92.50
4501;DHT22;2263;54.654;9.410;2023-03-01T15:19:16;4.30;92.60
4501;DHT22;2263;54.654;9.410;2023-03-01T15:22:01;4.30;92.50
4501;DHT22;2263;54.654;9.410;2023-03-01T15:24:56;4.30;92.50
4501;DHT22;2263;54.654;9.410;2023-03-01T15:27:48;4.30;92.50
4501;DHT22;2263;54.654;9.410;2023-03-01T15:30:35;4.30;92.50
4501;DHT22;2263;54.654;9.410;2023-03-01T15:33:37;4.30;92.50
4501;DHT22;2263;54.654;9.410;2023-03-01T15:36:39;4.30;92.70
4501;DHT22;2263;54.654;9.410;2023-03-01T15:48:03;4.30;92.60
4501;DHT22;2263;54.654;9.410;2023-03-01T15:50:55;4.30;92.60
4501;DHT22;2263;54.654;9.410;2023-03-01T15:53:42;4.30;92.60
4501;DHT22;2263;54.654;9.410;2023-03-01T15:56:28;4.30;92.60
4501;DHT22;2263;54.654;9.410;2023-03-01T15:59:13;4.30;92.60
4501;DHT22;2263;54.654;9.410;2023-03-01T16:01:58;4.30;92.70
4501;DHT22;2263;54.654;9.410;2023-03-01T16:04:42;4.30;92.80
4501;DHT22;2263;54.654;9.410;2023-03-01T16:07:27;4.30;92.80
4501;DHT22;2263;54.654;9.410;2023-03-01T16:10:12;4.30;92.80
4501;DHT22;2263;54.654;9.410;2023-03-01T16:12:57;4.30;92.90
4501;DHT22;2263;54.654;9.410;2023-03-01T16:15:42;4.30;92.90
4501;DHT22;2263;54.654;9.410;2023-03-01T16:18:27;4.30;92.80
4501;DHT22;2263;54.654;9.410;2023-03-01T16:21:19;4.30;92.90
4501;DHT22;2263;54.654;9.410;2023-03-01T16:24:05;4.30;92.90
4501;DHT22;2263;54.654;9.410;2023-03-01T16:26:50;4.30;93.00
4501;DHT22;2263;54.654;9.410;2023-03-01T16:29:35;4.30;93.00
4501;DHT22;2263;54.654;9.410;2023-03-01T16:32:19;4.30;93.00
4501;DHT22;2263;54.654;9.410;2023-03-01T16:35:05;4.30;92.90
4501;DHT22;2263;54.654;9.410;2023-03-01T16:37:51;4.30;92.90
4501;DHT22;2263;54.654;9.410;2023-03-01T16:40:38;4.30;92.90
4501;DHT22;2263;54.654;9.410;2023-03-01T16:43:22;4.30;93.00
4501;DHT22;2263;54.654;9.410;2023-03-01T17:17:34;4.30;93.00
4501;DHT22;2263;54.654;9.410;2023-03-01T17:20:19;4.30;92.90
4501;DHT22;2263;54.654;9.410;2023-03-01T17:23:03;4.20;93.50
4501;DHT22;2263;54.654;9.410;2023-03-01T17:25:49;4.10;93.90
4501;DHT22;2263;54.654;9.410;2023-03-01T17:28:34;4.00;94.00
4501;DHT22;2263;54.654;9.410;2023-03-01T17:31:19;4.00;94.00
4501;DHT22;2263;54.654;9.410;2023-03-01T17:34:04;4.10;93.70
4501;DHT22;2263;54.654;9.410;2023-03-01T17:36:49;4.10;93.60
4501;DHT22;2263;54.654;9.410;2023-03-01T17:39:35;4.20;93.50
4501;DHT22;2263;54.654;9.410;2023-03-01T17:42:22;4.20;93.50
4501;DHT22;2263;54.654;9.410;2023-03-01T17:45:07;4.20;93.30
4501;DHT22;2263;54.654;9.410;2023-03-01T17:47:51;4.20;93.30
4501;DHT22;2263;54.654;9.410;2023-03-01T17:50:37;4.20;93.30
4501;DHT22;2263;54.654;9.410;2023-03-01T17:53:23;4.20;93.20
4501;DHT22;2263;54.654;9.410;2023-03-01T17:56:08;4.20;93.20
4501;DHT22;2263;54.654;9.410;2023-03-01T17:58:53;4.20;93.20
4501;DHT22;2263;54.654;9.410;2023-03-01T18:01:40;4.20;93.20
4501;DHT22;2263;54.654;9.410;2023-03-01T18:04:26;4.20;93.40
4501;DHT22;2263;54.654;9.410;2023-03-01T18:07:11;4.30;93.50
4501;DHT22;2263;54.654;9.410;2023-03-01T18:09:55;4.40;93.40
4501;DHT22;2263;54.654;9.410;2023-03-01T18:12:40;4.50;93.40
4501;DHT22;2263;54.654;9.410;2023-03-01T18:15:24;4.60;93.40
4501;DHT22;2263;54.654;9.410;2023-03-01T18:18:09;4.70;93.30
4501;DHT22;2263;54.654;9.410;2023-03-01T18:20:57;4.70;93.30
4501;DHT22;2263;54.654;9.410;2023-03-01T18:23:42;4.80;93.20
4501;DHT22;2263;54.654;9.410;2023-03-01T18:26:27;4.80;93.20
4501;DHT22;2263;54.654;9.410;2023-03-01T18:29:12;4.90;93.20
4501;DHT22;2263;54.654;9.410;2023-03-01T18:31:57;4.90;93.20
4501;DHT22;2263;54.654;9.410;2023-03-01T18:34:41;4.90;93.10
4501;DHT22;2263;54.654;9.410;2023-03-01T18:37:25;5.00;93.20
4501;DHT22;2263;54.654;9.410;2023-03-01T18:40:10;5.00;93.20
4501;DHT22;2263;54.654;9.410;2023-03-01T18:42:56;5.00;93.10
4501;DHT22;2263;54.654;9.410;2023-03-01T18:45:41;5.00;93.10
4501;DHT22;2263;54.654;9.410;2023-03-01T18:48:28;5.00;93.10
4501;DHT22;2263;54.654;9.410;2023-03-01T18:51:15;5.00;93.10
4501;DHT22;2263;54.654;9.410;2023-03-01T18:54:00;5.10;93.10
4501;DHT22;2263;54.654;9.410;2023-03-01T18:56:45;5.10;93.10
4501;DHT22;2263;54.654;9.410;2023-03-01T18:59:29;5.10;93.10
4501;DHT22;2263;54.654;9.410;2023-03-01T19:02:14;5.10;93.10
4501;DHT22;2263;54.654;9.410;2023-03-01T19:04:58;5.10;93.10
4501;DHT22;2263;54.654;9.410;2023-03-01T19:07:43;5.10;93.10
4501;DHT22;2263;54.654;9.410;2023-03-01T19:10:27;5.10;93.10
4501;DHT22;2263;54.654;9.410;2023-03-01T19:13:12;5.10;93.00
4501;DHT22;2263;54.654;9.410;2023-03-01T19:18:58;5.10;93.00
4501;DHT22;2263;54.654;9.410;2023-03-01T19:21:42;5.10;93.00
4501;DHT22;2263;54.654;9.410;2023-03-01T19:24:27;5.10;93.00
4501;DHT22;2263;54.654;9.410;2023-03-01T19:27:11;5.10;93.00
4501;DHT22;2263;54.654;9.410;2023-03-01T19:29:58;5.10;93.00
4501;DHT22;2263;54.654;9.410;2023-03-01T19:32:43;5.10;93.00
4501;DHT22;2263;54.654;9.410;2023-03-01T19:35:27;5.10;93.00
4501;DHT22;2263;54.654;9.410;2023-03-01T19:38:12;5.10;93.00
4501;DHT22;2263;54.654;9.410;2023-03-01T19:40:56;5.10;93.00
4501;DHT22;2263;54.654;9.410;2023-03-01T19:43:42;5.10;93.00
4501;DHT22;2263;54.654;9.410;2023-03-01T19:46:27;5.10;93.00
4501;DHT22;2263;54.654;9.410;2023-03-01T19:49:11;5.10;93.00
4501;DHT22;2263;54.654;9.410;2023-03-01T19:51:56;5.10;93.00
4501;DHT22;2263;54.654;9.410;2023-03-01T19:54:40;5.10;93.00
4501;DHT22;2263;54.654;9.410;2023-03-01T19:57:25;5.10;93.00
4501;DHT22;2263;54.654;9.410;2023-03-01T20:00:09;5.10;93.00
4501;DHT22;2263;54.654;9.410;2023-03-01T20:02:54;5.10;93.00
4501;DHT22;2263;54.654;9.410;2023-03-01T20:05:39;5.10;93.00
4501;DHT22;2263;54.654;9.410;2023-03-01T20:08:24;5.10;93.00
4501;DHT22;2263;54.654;9.410;2023-03-01T20:11:13;5.10;93.00
4501;DHT22;2263;54.654;9.410;2023-03-01T20:13:59;5.00;92.90
4501;DHT22;2263;54.654;9.410;2023-03-01T20:16:43;5.00;92.90
4501;DHT22;2263;54.654;9.410;2023-03-01T20:19:28;5.00;92.90
4501;DHT22;2263;54.654;9.410;2023-03-01T20:22:12;5.00;92.90
4501;DHT22;2263;54.654;9.410;2023-03-01T20:24:58;5.00;92.80
4501;DHT22;2263;54.654;9.410;2023-03-01T20:27:42;5.00;92.90
4501;DHT22;2263;54.654;9.410;2023-03-01T20:30:30;5.00;92.90
4501;DHT22;2263;54.654;9.410;2023-03-01T20:33:15;5.00;92.80
4501;DHT22;2263;54.654;9.410;2023-03-01T20:35:59;5.00;93.10
4501;DHT22;2263;54.654;9.410;2023-03-01T20:38:44;5.00;92.90
4501;DHT22;2263;54.654;9.410;2023-03-01T20:41:28;5.00;92.90
4501;DHT22;2263;54.654;9.410;2023-03-01T20:44:12;4.90;92.80
4501;DHT22;2263;54.654;9.410;2023-03-01T20:46:57;4.90;92.80
4501;DHT22;2263;54.654;9.410;2023-03-01T20:49:41;4.90;92.80
4501;DHT22;2263;54.654;9.410;2023-03-01T20:52:26;4.90;92.90
4501;DHT22;2263;54.654;9.410;2023-03-01T20:55:11;4.90;92.80
4501;DHT22;2263;54.654;9.410;2023-03-01T20:57:56;4.90;92.80